sensor_id;sensor_type;location;lat;lon;timestamp;P1;durP1;ratioP1;P2;durP2;ratioP2
7501;SDS011;3792;47.740;7.606;2022-12-18T00:01:05;36.90;;;15.43;;
7501;SDS011;3792;47.740;7.606;2022-12-18T00:03:41;31.00;;;14.33;;
7501;SDS011;3792;47.740;7.606;2022-12-18T00:06:08;25.07;;;13.93;;
7501;SDS011;3792;47.740;7.606;2022-12-18T00:08:36;32.80;;;14.77;;
7501;SDS011;3792;47.740;7.606;2022-12-18T00:11:04;33.80;;;16.70;;
7501;SDS011;3792;47.740;7.606;2022-12-18T00:13:31;38.40;;;16.87;;
7501;SDS011;3792;47.740;7.606;2022-12-18T00:16:02;35.53;;;15.00;;
7501;SDS011;3792;47.740;7.606;2022-12-18T00:18:31;33.73;;;15.90;;
7501;SDS011;3792;47.740;7.606;2022-12-18T00:20:59;37.53;;;17.20;;
7501;SDS011;3792;47.740;7.606;2022-12-18T00:23:27;40.80;;;17.53;;
7501;SDS011;3792;47.740;7.606;2022-12-18T00:25:58;43.13;;;17.83;;
7501;SDS011;3792;47.740;7.606;2022-12-18T00:28:25;34.67;;;15.43;;
7501;SDS011;3792;47.740;7.606;2022-12-18T00:30:58;33.10;;;16.60;;
7501;SDS011;3792;47.740;7.606;2022-12-18T00:33:28;32.73;;;16.03;;
7501;SDS011;3792;47.740;7.606;2022-12-18T00:36:00;33.00;;;15.73;;
7501;SDS011;3792;47.740;7.606;2022-12-18T00:38:27;30.63;;;15.77;;
7501;SDS011;3792;47.740;7.606;2022-12-18T00:40:54;34.17;;;15.77;;
7501;SDS011;3792;47.740;7.606;2022-12-18T00:43:21;32.63;;;15.80;;
7501;SDS011;3792;47.740;7.606;2022-12-18T00:45:47;28.60;;;14.43;;
7501;SDS011;3792;47.740;7.606;2022-12-18T00:48:16;36.07;;;15.50;;
7501;SDS011;3792;47.740;7.606;2022-12-18T00:50:43;32.03;;;15.80;;
7501;SDS011;3792;47.740;7.606;2022-12-18T00:53:10;35.00;;;15.43;;
7501;SDS011;3792;47.740;7.606;2022-12-18T00:55:37;35.93;;;16.47;;
7501;SDS011;3792;47.740;7.606;2022-12-18T00:58:05;35.40;;;15.10;;
7501;SDS011;3792;47.740;7.606;2022-12-18T01:00:32;40.27;;;16.93;;
7501;SDS011;3792;47.740;7.606;2022-12-18T01:02:59;33.03;;;14.43;;
7501;SDS011;3792;47.740;7.606;2022-12-18T01:05:28;34.90;;;15.90;;
7501;SDS011;3792;47.740;7.606;2022-12-18T01:07:55;37.80;;;15.03;;
7501;SDS011;3792;47.740;7.606;2022-12-18T01:10:22;31.13;;;14.70;;
7501;SDS011;3792;47.740;7.606;2022-12-18T01:12:50;32.90;;;15.93;;
7501;SDS011;3792;47.740;7.606;2022-12-18T01:15:18;31.83;;;14.10;;
7501;SDS011;3792;47.740;7.606;2022-12-18T01:17:46;32.40;;;14.93;;
7501;SDS011;3792;47.740;7.606;2022-12-18T01:20:13;30.33;;;14.63;;
7501;SDS011;3792;47.740;7.606;2022-12-18T01:22:42;31.83;;;14.90;;
7501;SDS011;3792;47.740;7.606;2022-12-18T01:25:09;33.60;;;14.90;;
7501;SDS011;3792;47.740;7.606;2022-12-18T01:27:36;32.57;;;14.93;;
7501;SDS011;3792;47.740;7.606;2022-12-18T01:30:03;32.53;;;15.67;;
7501;SDS011;3792;47.740;7.606;2022-12-18T01:32:31;33.20;;;14.63;;
7501;SDS011;3792;47.740;7.606;2022-12-18T01:34:59;33.93;;;14.87;;
7501;SDS011;3792;47.740;7.606;2022-12-18T01:37:26;35.50;;;15.37;;
7501;SDS011;3792;47.740;7.606;2022-12-18T01:39:54;33.67;;;15.57;;
7501;SDS011;3792;47.740;7.606;2022-12-18T01:42:21;37.27;;;16.47;;
7501;SDS011;3792;47.740;7.606;2022-12-18T01:44:53;35.80;;;15.23;;
7501;SDS011;3792;47.740;7.606;2022-12-18T01:47:23;42.20;;;16.30;;
7501;SDS011;3792;47.740;7.606;2022-12-18T01:49:53;32.30;;;15.07;;
7501;SDS011;3792;47.740;7.606;2022-12-18T01:52:22;33.20;;;15.67;;
7501;SDS011;3792;47.740;7.606;2022-12-18T01:54:52;38.70;;;16.77;;
7501;SDS011;3792;47.740;7.606;2022-12-18T01:57:21;38.40;;;16.90;;
7501;SDS011;3792;47.740;7.606;2022-12-18T01:59:50;35.07;;;15.47;;
7501;SDS011;3792;47.740;7.606;2022-12-18T02:02:20;39.90;;;17.73;;
7501;SDS011;3792;47.740;7.606;2022-12-18T02:04:48;37.20;;;14.60;;
7501;SDS011;3792;47.740;7.606;2022-12-18T02:07:17;35.00;;;14.93;;
7501;SDS011;3792;47.740;7.606;2022-12-18T02:09:52;38.83;;;15.30;;
7501;SDS011;3792;47.740;7.606;2022-12-18T02:12:27;34.63;;;15.00;;
7501;SDS011;3792;47.740;7.606;2022-12-18T02:15:03;32.03;;;13.47;;
7501;SDS011;3792;47.740;7.606;2022-12-18T02:17:36;32.00;;;14.13;;
7501;SDS011;3792;47.740;7.606;2022-12-18T02:20:09;28.70;;;14.50;;
7501;SDS011;3792;47.740;7.606;2022-12-18T02:22:44;26.03;;;13.37;;
7501;SDS011;3792;47.740;7.606;2022-12-18T02:25:24;28.27;;;13.80;;
7501;SDS011;3792;47.740;7.606;2022-12-18T02:28:11;28.77;;;13.57;;
7501;SDS011;3792;47.740;7.606;2022-12-18T02:30:42;29.33;;;12.50;;
7501;SDS011;3792;47.740;7.606;2022-12-18T02:33:12;30.33;;;13.77;;
7501;SDS011;3792;47.740;7.606;2022-12-18T02:35:40;26.67;;;12.77;;
7501;SDS011;3792;47.740;7.606;2022-12-18T02:38:10;31.03;;;13.93;;
7501;SDS011;3792;47.740;7.606;2022-12-18T02:40:39;23.60;;;11.93;;
7501;SDS011;3792;47.740;7.606;2022-12-18T02:43:08;26.83;;;11.50;;
7501;SDS011;3792;47.740;7.606;2022-12-18T02:45:45;24.77;;;11.97;;
7501;SDS011;3792;47.740;7.606;2022-12-18T02:48:14;23.23;;;11.33;;
7501;SDS011;3792;47.740;7.606;2022-12-18T02:50:43;24.30;;;11.10;;
7501;SDS011;3792;47.740;7.606;2022-12-18T02:53:17;22.60;;;11.47;;
7501;SDS011;3792;47.740;7.606;2022-12-18T02:55:53;25.20;;;12.73;;
7501;SDS011;3792;47.740;7.606;2022-12-18T02:58:30;24.77;;;13.40;;
7501;SDS011;3792;47.740;7.606;2022-12-18T03:01:06;26.07;;;13.27;;
7501;SDS011;3792;47.740;7.606;2022-12-18T03:03:39;33.03;;;14.17;;
7501;SDS011;3792;47.740;7.606;2022-12-18T03:06:10;32.67;;;14.63;;
7501;SDS011;3792;47.740;7.606;2022-12-18T03:08:45;24.73;;;12.50;;
7501;SDS011;3792;47.740;7.606;2022-12-18T03:11:16;23.67;;;11.60;;
7501;SDS011;3792;47.740;7.606;2022-12-18T03:14:05;22.40;;;10.87;;
7501;SDS011;3792;47.740;7.606;2022-12-18T03:16:34;20.70;;;10.83;;
7501;SDS011;3792;47.740;7.606;2022-12-18T03:19:03;23.10;;;11.73;;
7501;SDS011;3792;47.740;7.606;2022-12-18T03:21:36;23.30;;;11.10;;
7501;SDS011;3792;47.740;7.606;2022-12-18T03:24:07;22.73;;;10.30;;
7501;SDS011;3792;47.740;7.606;2022-12-18T03:26:36;23.60;;;10.53;;
7501;SDS011;3792;47.740;7.606;2022-12-18T03:29:09;24.33;;;11.13;;
7501;SDS011;3792;47.740;7.606;2022-12-18T03:31:40;22.67;;;10.97;;
7501;SDS011;3792;47.740;7.606;2022-12-18T03:34:09;21.43;;;10.37;;
7501;SDS011;3792;47.740;7.606;2022-12-18T03:36:40;22.07;;;11.10;;
7501;SDS011;3792;47.740;7.606;2022-12-18T03:39:07;22.57;;;11.57;;
7501;SDS011;3792;47.740;7.606;2022-12-18T03:41:37;21.50;;;10.63;;
7501;SDS011;3792;47.740;7.606;2022-12-18T03:44:12;18.13;;;9.23;;
7501;SDS011;3792;47.740;7.606;2022-12-18T03:46:45;24.73;;;11.23;;
7501;SDS011;3792;47.740;7.606;2022-12-18T03:49:21;22.07;;;10.23;;
7501;SDS011;3792;47.740;7.606;2022-12-18T03:51:54;23.00;;;10.87;;
7501;SDS011;3792;47.740;7.606;2022-12-18T03:54:28;28.27;;;12.43;;
7501;SDS011;3792;47.740;7.606;2022-12-18T03:56:58;23.53;;;11.77;;
7501;SDS011;3792;47.740;7.606;2022-12-18T03:59:31;23.07;;;10.77;;
7501;SDS011;3792;47.740;7.606;2022-12-18T04:02:00;25.03;;;11.90;;
7501;SDS011;3792;47.740;7.606;2022-12-18T04:04:30;28.27;;;12.13;;
7501;SDS011;3792;47.740;7.606;2022-12-18T04:06:58;20.73;;;10.27;;
7501;SDS011;3792;47.740;7.606;2022-12-18T04:09:26;23.23;;;10.67;;
7501;SDS011;3792;47.740;7.606;2022-12-18T04:11:54;23.73;;;10.33;;
7501;SDS011;3792;47.740;7.606;2022-12-18T04:14:21;25.73;;;11.80;;
7501;SDS011;3792;47.740;7.606;2022-12-18T04:16:50;22.70;;;11.17;;
7501;SDS011;3792;47.740;7.606;2022-12-18T04:19:17;23.43;;;10.37;;
7501;SDS011;3792;47.740;7.606;2022-12-18T04:21:44;22.13;;;10.37;;
7501;SDS011;3792;47.740;7.606;2022-12-18T04:24:11;22.93;;;10.80;;
7501;SDS011;3792;47.740;7.606;2022-12-18T04:26:38;21.20;;;10.70;;
7501;SDS011;3792;47.740;7.606;2022-12-18T04:29:05;20.20;;;9.83;;
7501;SDS011;3792;47.740;7.606;2022-12-18T04:31:32;20.30;;;10.80;;
7501;SDS011;3792;47.740;7.606;2022-12-18T04:34:01;21.67;;;11.13;;
7501;SDS011;3792;47.740;7.606;2022-12-18T04:36:28;20.50;;;9.93;;
7501;SDS011;3792;47.740;7.606;2022-12-18T04:38:55;23.97;;;9.93;;
7501;SDS011;3792;47.740;7.606;2022-12-18T04:41:22;21.03;;;10.50;;
7501;SDS011;3792;47.740;7.606;2022-12-18T04:43:49;25.00;;;11.33;;
7501;SDS011;3792;47.740;7.606;2022-12-18T04:46:17;22.53;;;11.43;;
7501;SDS011;3792;47.740;7.606;2022-12-18T04:48:44;22.50;;;10.40;;
7501;SDS011;3792;47.740;7.606;2022-12-18T04:51:14;22.83;;;11.37;;
7501;SDS011;3792;47.740;7.606;2022-12-18T04:53:41;21.60;;;11.40;;
7501;SDS011;3792;47.740;7.606;2022-12-18T04:56:08;22.33;;;10.23;;
7501;SDS011;3792;47.740;7.606;2022-12-18T04:58:37;25.47;;;11.07;;
7501;SDS011;3792;47.740;7.606;2022-12-18T05:01:05;20.67;;;10.70;;
7501;SDS011;3792;47.740;7.606;2022-12-18T05:03:33;21.97;;;10.33;;
7501;SDS011;3792;47.740;7.606;2022-12-18T05:06:01;23.57;;;11.53;;
7501;SDS011;3792;47.740;7.606;2022-12-18T05:08:30;19.27;;;10.70;;
7501;SDS011;3792;47.740;7.606;2022-12-18T05:10:58;21.70;;;11.23;;
7501;SDS011;3792;47.740;7.606;2022-12-18T05:13:26;24.23;;;12.53;;
7501;SDS011;3792;47.740;7.606;2022-12-18T05:15:53;22.47;;;11.33;;
7501;SDS011;3792;47.740;7.606;2022-12-18T05:18:21;23.53;;;13.07;;
7501;SDS011;3792;47.740;7.606;2022-12-18T05:20:48;22.77;;;11.27;;
7501;SDS011;3792;47.740;7.606;2022-12-18T05:23:15;19.87;;;10.13;;
7501;SDS011;3792;47.740;7.606;2022-12-18T05:25:47;20.30;;;10.17;;
7501;SDS011;3792;47.740;7.606;2022-12-18T05:28:16;24.10;;;11.23;;
7501;SDS011;3792;47.740;7.606;2022-12-18T05:30:46;25.00;;;12.13;;
7501;SDS011;3792;47.740;7.606;2022-12-18T05:33:14;29.53;;;11.97;;
7501;SDS011;3792;47.740;7.606;2022-12-18T05:35:42;23.10;;;11.17;;
7501;SDS011;3792;47.740;7.606;2022-12-18T05:38:09;29.53;;;12.77;;
7501;SDS011;3792;47.740;7.606;2022-12-18T05:40:36;21.07;;;10.43;;
7501;SDS011;3792;47.740;7.606;2022-12-18T05:43:05;21.40;;;10.03;;
7501;SDS011;3792;47.740;7.606;2022-12-18T05:45:32;22.10;;;11.37;;
7501;SDS011;3792;47.740;7.606;2022-12-18T05:47:59;25.27;;;12.17;;
7501;SDS011;3792;47.740;7.606;2022-12-18T05:50:26;21.20;;;11.37;;
7501;SDS011;3792;47.740;7.606;2022-12-18T05:52:53;23.47;;;11.63;;
7501;SDS011;3792;47.740;7.606;2022-12-18T05:55:21;24.23;;;12.20;;
7501;SDS011;3792;47.740;7.606;2022-12-18T05:57:48;93.97;;;32.63;;
7501;SDS011;3792;47.740;7.606;2022-12-18T06:00:17;131.03;;;42.47;;
7501;SDS011;3792;47.740;7.606;2022-12-18T06:02:46;136.43;;;45.63;;
7501;SDS011;3792;47.740;7.606;2022-12-18T06:05:13;52.33;;;25.00;;
7501;SDS011;3792;47.740;7.606;2022-12-18T06:07:40;70.93;;;32.87;;
7501;SDS011;3792;47.740;7.606;2022-12-18T06:10:08;40.37;;;18.77;;
7501;SDS011;3792;47.740;7.606;2022-12-18T06:12:35;48.13;;;24.53;;
7501;SDS011;3792;47.740;7.606;2022-12-18T06:15:02;41.20;;;22.23;;
7501;SDS011;3792;47.740;7.606;2022-12-18T06:17:31;25.50;;;12.73;;
7501;SDS011;3792;47.740;7.606;2022-12-18T06:19:59;25.30;;;13.40;;
7501;SDS011;3792;47.740;7.606;2022-12-18T06:22:26;24.97;;;12.80;;
7501;SDS011;3792;47.740;7.606;2022-12-18T06:24:53;26.57;;;13.23;;
7501;SDS011;3792;47.740;7.606;2022-12-18T06:27:21;29.60;;;15.03;;
7501;SDS011;3792;47.740;7.606;2022-12-18T06:29:48;28.57;;;13.37;;
7501;SDS011;3792;47.740;7.606;2022-12-18T06:32:15;48.43;;;22.30;;
7501;SDS011;3792;47.740;7.606;2022-12-18T06:34:43;56.43;;;27.90;;
7501;SDS011;3792;47.740;7.606;2022-12-18T06:37:10;71.67;;;32.70;;
7501;SDS011;3792;47.740;7.606;2022-12-18T06:39:37;45.83;;;22.73;;
7501;SDS011;3792;47.740;7.606;2022-12-18T06:42:05;30.77;;;15.20;;
7501;SDS011;3792;47.740;7.606;2022-12-18T06:44:32;29.03;;;13.60;;
7501;SDS011;3792;47.740;7.606;2022-12-18T06:46:59;28.03;;;12.07;;
7501;SDS011;3792;47.740;7.606;2022-12-18T06:49:27;28.40;;;12.20;;
7501;SDS011;3792;47.740;7.606;2022-12-18T06:51:56;26.50;;;12.07;;
7501;SDS011;3792;47.740;7.606;2022-12-18T06:54:23;24.23;;;12.07;;
7501;SDS011;3792;47.740;7.606;2022-12-18T06:56:50;24.83;;;12.27;;
7501;SDS011;3792;47.740;7.606;2022-12-18T06:59:18;24.40;;;10.90;;
7501;SDS011;3792;47.740;7.606;2022-12-18T07:01:45;21.30;;;11.23;;
7501;SDS011;3792;47.740;7.606;2022-12-18T07:04:13;24.47;;;11.87;;
7501;SDS011;3792;47.740;7.606;2022-12-18T07:06:41;25.33;;;11.63;;
7501;SDS011;3792;47.740;7.606;2022-12-18T07:09:10;22.33;;;11.20;;
7501;SDS011;3792;47.740;7.606;2022-12-18T07:11:37;25.33;;;12.50;;
7501;SDS011;3792;47.740;7.606;2022-12-18T07:14:04;26.30;;;13.90;;
7501;SDS011;3792;47.740;7.606;2022-12-18T07:16:31;28.50;;;14.53;;
7501;SDS011;3792;47.740;7.606;2022-12-18T07:18:58;29.97;;;15.20;;
7501;SDS011;3792;47.740;7.606;2022-12-18T07:21:25;28.23;;;13.20;;
7501;SDS011;3792;47.740;7.606;2022-12-18T07:23:53;28.23;;;13.97;;
7501;SDS011;3792;47.740;7.606;2022-12-18T07:26:21;21.93;;;12.03;;
7501;SDS011;3792;47.740;7.606;2022-12-18T07:28:49;28.10;;;13.03;;
7501;SDS011;3792;47.740;7.606;2022-12-18T07:31:17;23.97;;;12.13;;
7501;SDS011;3792;47.740;7.606;2022-12-18T07:33:46;29.40;;;14.57;;
7501;SDS011;3792;47.740;7.606;2022-12-18T07:36:14;29.90;;;14.53;;
7501;SDS011;3792;47.740;7.606;2022-12-18T07:38:41;29.03;;;14.17;;
7501;SDS011;3792;47.740;7.606;2022-12-18T07:41:09;27.50;;;12.90;;
7501;SDS011;3792;47.740;7.606;2022-12-18T07:43:45;31.73;;;15.40;;
7501;SDS011;3792;47.740;7.606;2022-12-18T07:46:14;31.97;;;16.33;;
7501;SDS011;3792;47.740;7.606;2022-12-18T07:48:42;33.33;;;17.03;;
7501;SDS011;3792;47.740;7.606;2022-12-18T07:51:09;40.67;;;19.87;;
7501;SDS011;3792;47.740;7.606;2022-12-18T07:53:37;44.20;;;20.17;;
7501;SDS011;3792;47.740;7.606;2022-12-18T07:56:05;33.40;;;18.77;;
7501;SDS011;3792;47.740;7.606;2022-12-18T07:58:34;44.20;;;20.70;;
7501;SDS011;3792;47.740;7.606;2022-12-18T08:01:04;39.03;;;19.37;;
7501;SDS011;3792;47.740;7.606;2022-12-18T08:03:32;37.97;;;19.00;;
7501;SDS011;3792;47.740;7.606;2022-12-18T08:06:00;40.97;;;18.83;;
7501;SDS011;3792;47.740;7.606;2022-12-18T08:08:27;43.00;;;18.17;;
7501;SDS011;3792;47.740;7.606;2022-12-18T08:10:55;33.37;;;15.57;;
7501;SDS011;3792;47.740;7.606;2022-12-18T08:13:23;53.80;;;20.27;;
7501;SDS011;3792;47.740;7.606;2022-12-18T08:15:55;72.77;;;28.73;;
7501;SDS011;3792;47.740;7.606;2022-12-18T08:18:24;73.43;;;23.57;;
7501;SDS011;3792;47.740;7.606;2022-12-18T08:20:51;45.97;;;17.20;;
7501;SDS011;3792;47.740;7.606;2022-12-18T08:23:19;34.47;;;14.67;;
7501;SDS011;3792;47.740;7.606;2022-12-18T08:25:46;40.90;;;16.80;;
7501;SDS011;3792;47.740;7.606;2022-12-18T08:28:16;46.27;;;18.03;;
7501;SDS011;3792;47.740;7.606;2022-12-18T08:30:43;45.97;;;17.00;;
7501;SDS011;3792;47.740;7.606;2022-12-18T08:33:10;33.50;;;16.07;;
7501;SDS011;3792;47.740;7.606;2022-12-18T08:35:39;35.70;;;15.13;;
7501;SDS011;3792;47.740;7.606;2022-12-18T08:38:06;52.90;;;15.77;;
7501;SDS011;3792;47.740;7.606;2022-12-18T08:40:33;32.50;;;13.70;;
7501;SDS011;3792;47.740;7.606;2022-12-18T08:43:00;23.83;;;13.20;;
7501;SDS011;3792;47.740;7.606;2022-12-18T08:45:44;25.80;;;13.17;;
7501;SDS011;3792;47.740;7.606;2022-12-18T08:48:11;24.87;;;13.00;;
7501;SDS011;3792;47.740;7.606;2022-12-18T08:50:40;23.27;;;12.60;;
7501;SDS011;3792;47.740;7.606;2022-12-18T08:53:07;31.23;;;15.20;;
7501;SDS011;3792;47.740;7.606;2022-12-18T08:55:35;26.37;;;13.93;;
7501;SDS011;3792;47.740;7.606;2022-12-18T08:58:02;37.73;;;19.23;;
7501;SDS011;3792;47.740;7.606;2022-12-18T09:00:29;31.60;;;15.93;;
7501;SDS011;3792;47.740;7.606;2022-12-18T09:02:56;24.23;;;12.40;;
7501;SDS011;3792;47.740;7.606;2022-12-18T09:05:23;28.50;;;17.07;;
7501;SDS011;3792;47.740;7.606;2022-12-18T09:07:52;25.30;;;14.67;;
7501;SDS011;3792;47.740;7.606;2022-12-18T09:10:19;23.60;;;13.13;;
7501;SDS011;3792;47.740;7.606;2022-12-18T09:12:46;23.63;;;11.93;;
7501;SDS011;3792;47.740;7.606;2022-12-18T09:15:13;26.03;;;13.47;;
7501;SDS011;3792;47.740;7.606;2022-12-18T09:17:40;21.03;;;13.40;;
7501;SDS011;3792;47.740;7.606;2022-12-18T09:20:07;24.87;;;13.17;;
7501;SDS011;3792;47.740;7.606;2022-12-18T09:22:35;26.97;;;15.67;;
7501;SDS011;3792;47.740;7.606;2022-12-18T09:25:04;39.00;;;19.53;;
7501;SDS011;3792;47.740;7.606;2022-12-18T09:27:32;39.30;;;22.03;;
7501;SDS011;3792;47.740;7.606;2022-12-18T09:30:00;51.43;;;23.17;;
7501;SDS011;3792;47.740;7.606;2022-12-18T09:32:27;28.77;;;15.17;;
7501;SDS011;3792;47.740;7.606;2022-12-18T09:34:54;35.60;;;16.73;;
7501;SDS011;3792;47.740;7.606;2022-12-18T09:37:21;31.80;;;18.27;;
7501;SDS011;3792;47.740;7.606;2022-12-18T09:39:49;26.50;;;15.50;;
7501;SDS011;3792;47.740;7.606;2022-12-18T09:42:20;29.50;;;16.57;;
7501;SDS011;3792;47.740;7.606;2022-12-18T09:44:49;26.37;;;14.33;;
7501;SDS011;3792;47.740;7.606;2022-12-18T09:47:18;24.53;;;14.83;;
7501;SDS011;3792;47.740;7.606;2022-12-18T09:49:50;26.63;;;14.47;;
7501;SDS011;3792;47.740;7.606;2022-12-18T09:52:23;24.90;;;14.33;;
7501;SDS011;3792;47.740;7.606;2022-12-18T09:54:54;24.80;;;14.50;;
7501;SDS011;3792;47.740;7.606;2022-12-18T09:57:26;24.70;;;14.30;;
7501;SDS011;3792;47.740;7.606;2022-12-18T09:59:56;21.13;;;13.63;;
7501;SDS011;3792;47.740;7.606;2022-12-18T10:02:26;26.53;;;14.77;;
7501;SDS011;3792;47.740;7.606;2022-12-18T10:05:02;30.40;;;16.87;;
7501;SDS011;3792;47.740;7.606;2022-12-18T10:07:33;31.87;;;16.97;;
7501;SDS011;3792;47.740;7.606;2022-12-18T10:10:13;26.43;;;15.77;;
7501;SDS011;3792;47.740;7.606;2022-12-18T10:12:49;24.70;;;14.63;;
7501;SDS011;3792;47.740;7.606;2022-12-18T10:15:24;25.17;;;15.40;;
7501;SDS011;3792;47.740;7.606;2022-12-18T10:17:58;26.93;;;15.47;;
7501;SDS011;3792;47.740;7.606;2022-12-18T10:20:34;30.90;;;16.10;;
7501;SDS011;3792;47.740;7.606;2022-12-18T10:23:11;30.40;;;16.77;;
7501;SDS011;3792;47.740;7.606;2022-12-18T10:25:46;30.60;;;16.80;;
7501;SDS011;3792;47.740;7.606;2022-12-18T10:28:21;28.03;;;15.03;;
7501;SDS011;3792;47.740;7.606;2022-12-18T10:30:51;24.43;;;15.27;;
7501;SDS011;3792;47.740;7.606;2022-12-18T10:33:20;28.40;;;16.70;;
7501;SDS011;3792;47.740;7.606;2022-12-18T10:35:50;27.43;;;16.20;;
7501;SDS011;3792;47.740;7.606;2022-12-18T10:38:21;27.33;;;16.00;;
7501;SDS011;3792;47.740;7.606;2022-12-18T10:40:51;30.67;;;16.83;;
7501;SDS011;3792;47.740;7.606;2022-12-18T10:43:22;27.60;;;16.03;;
7501;SDS011;3792;47.740;7.606;2022-12-18T10:46:01;29.00;;;15.83;;
7501;SDS011;3792;47.740;7.606;2022-12-18T10:48:40;27.77;;;17.00;;
7501;SDS011;3792;47.740;7.606;2022-12-18T10:51:19;41.47;;;23.27;;
7501;SDS011;3792;47.740;7.606;2022-12-18T10:53:51;35.87;;;19.23;;
7501;SDS011;3792;47.740;7.606;2022-12-18T10:56:22;46.17;;;26.37;;
7501;SDS011;3792;47.740;7.606;2022-12-18T10:58:56;38.77;;;22.23;;
7501;SDS011;3792;47.740;7.606;2022-12-18T11:01:25;34.07;;;19.57;;
7501;SDS011;3792;47.740;7.606;2022-12-18T11:04:00;32.00;;;18.73;;
7501;SDS011;3792;47.740;7.606;2022-12-18T11:06:33;28.57;;;17.70;;
7501;SDS011;3792;47.740;7.606;2022-12-18T11:09:19;25.33;;;14.33;;
7501;SDS011;3792;47.740;7.606;2022-12-18T11:11:48;28.77;;;16.97;;
7501;SDS011;3792;47.740;7.606;2022-12-18T11:14:20;31.90;;;18.43;;
7501;SDS011;3792;47.740;7.606;2022-12-18T11:16:49;35.67;;;19.77;;
7501;SDS011;3792;47.740;7.606;2022-12-18T11:19:24;31.73;;;19.10;;
7501;SDS011;3792;47.740;7.606;2022-12-18T11:21:56;35.80;;;19.50;;
7501;SDS011;3792;47.740;7.606;2022-12-18T11:24:26;33.90;;;19.40;;
7501;SDS011;3792;47.740;7.606;2022-12-18T11:26:55;36.00;;;19.80;;
7501;SDS011;3792;47.740;7.606;2022-12-18T11:29:27;37.40;;;20.60;;
7501;SDS011;3792;47.740;7.606;2022-12-18T11:35:03;37.20;;;20.43;;
7501;SDS011;3792;47.740;7.606;2022-12-18T11:37:39;36.20;;;20.13;;
7501;SDS011;3792;47.740;7.606;2022-12-18T11:40:10;36.57;;;21.07;;
7501;SDS011;3792;47.740;7.606;2022-12-18T11:42:45;37.43;;;19.90;;
7501;SDS011;3792;47.740;7.606;2022-12-18T11:45:28;33.97;;;20.50;;
7501;SDS011;3792;47.740;7.606;2022-12-18T11:47:58;41.17;;;20.67;;
7501;SDS011;3792;47.740;7.606;2022-12-18T11:50:29;42.50;;;21.83;;
7501;SDS011;3792;47.740;7.606;2022-12-18T11:53:07;46.37;;;22.40;;
7501;SDS011;3792;47.740;7.606;2022-12-18T11:55:39;43.60;;;21.17;;
7501;SDS011;3792;47.740;7.606;2022-12-18T11:58:18;44.47;;;21.47;;
7501;SDS011;3792;47.740;7.606;2022-12-18T12:00:56;45.77;;;22.63;;
7501;SDS011;3792;47.740;7.606;2022-12-18T12:03:39;40.47;;;20.40;;
7501;SDS011;3792;47.740;7.606;2022-12-18T12:06:21;43.40;;;20.70;;
7501;SDS011;3792;47.740;7.606;2022-12-18T12:09:00;47.47;;;23.50;;
7501;SDS011;3792;47.740;7.606;2022-12-18T12:11:35;45.37;;;22.27;;
7501;SDS011;3792;47.740;7.606;2022-12-18T12:14:17;45.70;;;21.37;;
7501;SDS011;3792;47.740;7.606;2022-12-18T12:16:56;45.27;;;22.40;;
7501;SDS011;3792;47.740;7.606;2022-12-18T12:19:32;44.07;;;21.57;;
7501;SDS011;3792;47.740;7.606;2022-12-18T12:22:07;45.00;;;23.33;;
7501;SDS011;3792;47.740;7.606;2022-12-18T12:24:45;39.70;;;21.50;;
7501;SDS011;3792;47.740;7.606;2022-12-18T12:27:25;47.13;;;24.23;;
7501;SDS011;3792;47.740;7.606;2022-12-18T12:30:03;41.90;;;22.33;;
7501;SDS011;3792;47.740;7.606;2022-12-18T12:32:58;41.23;;;21.83;;
7501;SDS011;3792;47.740;7.606;2022-12-18T12:35:44;45.40;;;23.00;;
7501;SDS011;3792;47.740;7.606;2022-12-18T12:38:18;45.27;;;23.00;;
7501;SDS011;3792;47.740;7.606;2022-12-18T12:40:51;42.63;;;22.83;;
7501;SDS011;3792;47.740;7.606;2022-12-18T12:43:25;43.37;;;21.83;;
7501;SDS011;3792;47.740;7.606;2022-12-18T12:45:57;38.60;;;20.37;;
7501;SDS011;3792;47.740;7.606;2022-12-18T12:48:33;39.40;;;20.97;;
7501;SDS011;3792;47.740;7.606;2022-12-18T12:51:08;41.77;;;22.60;;
7501;SDS011;3792;47.740;7.606;2022-12-18T12:53:39;44.03;;;21.80;;
7501;SDS011;3792;47.740;7.606;2022-12-18T12:56:08;45.97;;;24.80;;
7501;SDS011;3792;47.740;7.606;2022-12-18T12:58:40;51.30;;;26.17;;
7501;SDS011;3792;47.740;7.606;2022-12-18T13:01:16;49.80;;;24.87;;
7501;SDS011;3792;47.740;7.606;2022-12-18T13:03:54;47.07;;;24.10;;
7501;SDS011;3792;47.740;7.606;2022-12-18T13:06:39;85.63;;;38.33;;
7501;SDS011;3792;47.740;7.606;2022-12-18T13:09:12;63.23;;;27.93;;
7501;SDS011;3792;47.740;7.606;2022-12-18T13:11:39;58.40;;;29.50;;
7501;SDS011;3792;47.740;7.606;2022-12-18T13:14:29;45.73;;;23.07;;
7501;SDS011;3792;47.740;7.606;2022-12-18T13:17:16;42.40;;;22.20;;
7501;SDS011;3792;47.740;7.606;2022-12-18T13:20:04;37.97;;;20.23;;
7501;SDS011;3792;47.740;7.606;2022-12-18T13:22:36;36.67;;;20.57;;
7501;SDS011;3792;47.740;7.606;2022-12-18T13:27:57;42.30;;;23.73;;
7501;SDS011;3792;47.740;7.606;2022-12-18T13:36:14;40.70;;;23.13;;
7501;SDS011;3792;47.740;7.606;2022-12-18T13:38:43;36.73;;;21.77;;
7501;SDS011;3792;47.740;7.606;2022-12-18T13:41:24;42.57;;;25.37;;
7501;SDS011;3792;47.740;7.606;2022-12-18T13:43:52;39.23;;;21.13;;
7501;SDS011;3792;47.740;7.606;2022-12-18T13:46:23;27.50;;;14.83;;
7501;SDS011;3792;47.740;7.606;2022-12-18T13:48:58;36.03;;;19.20;;
7501;SDS011;3792;47.740;7.606;2022-12-18T13:51:29;34.97;;;19.07;;
7501;SDS011;3792;47.740;7.606;2022-12-18T13:53:59;31.87;;;16.77;;
7501;SDS011;3792;47.740;7.606;2022-12-18T13:56:29;30.47;;;16.33;;
7501;SDS011;3792;47.740;7.606;2022-12-18T14:01:48;34.90;;;21.20;;
7501;SDS011;3792;47.740;7.606;2022-12-18T14:04:19;39.17;;;22.87;;
7501;SDS011;3792;47.740;7.606;2022-12-18T14:06:51;37.57;;;22.20;;
7501;SDS011;3792;47.740;7.606;2022-12-18T14:09:23;38.40;;;22.83;;
7501;SDS011;3792;47.740;7.606;2022-12-18T14:11:52;39.30;;;23.83;;
7501;SDS011;3792;47.740;7.606;2022-12-18T14:14:43;53.83;;;31.43;;
7501;SDS011;3792;47.740;7.606;2022-12-18T14:17:12;47.53;;;28.33;;
7501;SDS011;3792;47.740;7.606;2022-12-18T14:19:41;47.53;;;28.30;;
7501;SDS011;3792;47.740;7.606;2022-12-18T14:22:15;49.20;;;26.90;;
7501;SDS011;3792;47.740;7.606;2022-12-18T14:24:44;43.53;;;26.07;;
7501;SDS011;3792;47.740;7.606;2022-12-18T14:27:12;38.97;;;23.93;;
7501;SDS011;3792;47.740;7.606;2022-12-18T14:29:46;37.97;;;21.97;;
7501;SDS011;3792;47.740;7.606;2022-12-18T14:32:14;42.17;;;23.33;;
7501;SDS011;3792;47.740;7.606;2022-12-18T14:34:42;35.13;;;20.27;;
7501;SDS011;3792;47.740;7.606;2022-12-18T14:37:10;37.77;;;21.90;;
7501;SDS011;3792;47.740;7.606;2022-12-18T14:39:40;38.27;;;22.87;;
7501;SDS011;3792;47.740;7.606;2022-12-18T14:42:19;43.23;;;25.73;;
7501;SDS011;3792;47.740;7.606;2022-12-18T14:44:46;59.83;;;36.57;;
7501;SDS011;3792;47.740;7.606;2022-12-18T14:47:14;49.43;;;30.33;;
7501;SDS011;3792;47.740;7.606;2022-12-18T14:49:42;50.37;;;31.27;;
7501;SDS011;3792;47.740;7.606;2022-12-18T14:52:17;36.83;;;20.93;;
7501;SDS011;3792;47.740;7.606;2022-12-18T14:54:50;48.60;;;28.70;;
7501;SDS011;3792;47.740;7.606;2022-12-18T14:57:20;37.63;;;22.63;;
7501;SDS011;3792;47.740;7.606;2022-12-18T14:59:49;37.77;;;23.47;;
7501;SDS011;3792;47.740;7.606;2022-12-18T15:02:18;37.87;;;23.13;;
7501;SDS011;3792;47.740;7.606;2022-12-18T15:04:48;35.60;;;21.77;;
7501;SDS011;3792;47.740;7.606;2022-12-18T15:07:27;38.13;;;24.07;;
7501;SDS011;3792;47.740;7.606;2022-12-18T15:10:11;36.33;;;21.50;;
7501;SDS011;3792;47.740;7.606;2022-12-18T15:12:40;34.83;;;20.63;;
7501;SDS011;3792;47.740;7.606;2022-12-18T15:18:13;32.70;;;18.77;;
7501;SDS011;3792;47.740;7.606;2022-12-18T15:20:43;30.80;;;19.00;;
7501;SDS011;3792;47.740;7.606;2022-12-18T15:23:14;26.87;;;17.13;;
7501;SDS011;3792;47.740;7.606;2022-12-18T15:25:45;30.87;;;17.27;;